createdAt,value
2023-05-14T00:00:23.116Z,100.00
2023-05-14T00:02:50.210Z,100.00
2023-05-14T00:05:16.928Z,100.00
2023-05-14T00:07:43.467Z,100.00
2023-05-14T00:10:10.564Z,100.00
2023-05-14T00:12:37.174Z,100.00
2023-05-14T00:15:04.105Z,100.00
2023-05-14T00:17:31.097Z,100.00
2023-05-14T00:19:57.769Z,100.00
2023-05-14T00:22:24.356Z,100.00
2023-05-14T00:24:50.944Z,100.00
2023-05-14T00:27:17.676Z,100.00
2023-05-14T00:29:45.633Z,100.00
2023-05-14T00:32:12.287Z,100.00
2023-05-14T00:34:38.876Z,100.00
2023-05-14T00:37:05.705Z,100.00
2023-05-14T00:39:32.362Z,100.00
2023-05-14T00:41:59.166Z,100.00
2023-05-14T00:44:25.749Z,100.00
2023-05-14T00:46:53.277Z,100.00
2023-05-14T00:49:20.263Z,100.00
2023-05-14T00:51:47.122Z,100.00
2023-05-14T00:54:17.822Z,100.00
2023-05-14T00:56:48.173Z,100.00
2023-05-14T00:59:14.844Z,100.00
2023-05-14T01:01:41.627Z,100.00
2023-05-14T01:04:10.541Z,100.00
2023-05-14T01:06:59.156Z,100.00
2023-05-14T01:09:36.532Z,100.00
2023-05-14T01:12:12.393Z,100.00
2023-05-14T01:15:10.481Z,100.00
2023-05-14T01:17:46.962Z,100.00
2023-05-14T01:20:13.940Z,100.00
2023-05-14T01:22:40.506Z,100.00
2023-05-14T01:25:07.637Z,100.00
2023-05-14T01:27:56.481Z,100.00
2023-05-14T01:30:34.869Z,100.00
2023-05-14T01:33:13.482Z,100.00
2023-05-14T01:35:41.377Z,100.00
2023-05-14T01:38:12.339Z,100.00
2023-05-14T01:40:39.878Z,100.00
2023-05-14T01:43:06.682Z,100.00
2023-05-14T01:45:36.094Z,100.00
2023-05-14T01:48:02.930Z,100.00
2023-05-14T01:50:29.558Z,100.00
2023-05-14T01:52:56.692Z,100.00
2023-05-14T01:55:26.925Z,100.00
2023-05-14T01:57:53.763Z,100.00
2023-05-14T02:00:22.288Z,100.00
2023-05-14T02:02:49.065Z,100.00
2023-05-14T02:05:15.831Z,100.00
2023-05-14T02:07:42.438Z,100.00
2023-05-14T02:10:09.741Z,100.00
2023-05-14T02:12:36.405Z,100.00
2023-05-14T02:15:04.167Z,100.00
2023-05-14T02:17:30.814Z,100.00
2023-05-14T02:19:57.547Z,100.00
2023-05-14T02:22:24.106Z,100.00
2023-05-14T02:24:51.497Z,100.00
2023-05-14T02:27:18.493Z,100.00
2023-05-14T02:29:45.050Z,100.00
2023-05-14T02:32:11.661Z,100.00
2023-05-14T02:34:38.746Z,100.00
2023-05-14T02:37:05.600Z,100.00
2023-05-14T02:39:32.185Z,100.00
2023-05-14T02:41:58.779Z,100.00
2023-05-14T02:44:25.361Z,100.00
2023-05-14T02:46:51.952Z,100.00
2023-05-14T02:49:18.625Z,100.00
2023-05-14T02:51:45.253Z,100.00
2023-05-14T02:54:11.864Z,100.00
2023-05-14T02:56:38.539Z,100.00
2023-05-14T02:59:05.162Z,100.00
2023-05-14T03:01:31.891Z,100.00
2023-05-14T03:03:58.962Z,100.00
2023-05-14T03:06:25.565Z,100.00
2023-05-14T03:08:52.152Z,100.00
2023-05-14T03:11:18.836Z,100.00
2023-05-14T03:13:45.389Z,100.00
2023-05-14T03:16:12.095Z,100.00
2023-05-14T03:18:38.717Z,100.00
2023-05-14T03:21:05.325Z,100.00
2023-05-14T03:23:34.926Z,100.00
2023-05-14T03:26:02.331Z,100.00
2023-05-14T03:28:28.948Z,100.00
2023-05-14T03:30:55.649Z,100.00
2023-05-14T03:33:22.828Z,100.00
2023-05-14T03:35:49.445Z,100.00
2023-05-14T03:38:16.017Z,100.00
2023-05-14T03:40:45.346Z,100.00
2023-05-14T03:43:11.910Z,100.00
2023-05-14T03:45:38.888Z,100.00
2023-05-14T03:48:06.154Z,100.00
2023-05-14T03:50:32.938Z,100.00
2023-05-14T03:52:59.535Z,100.00
2023-05-14T03:55:26.120Z,100.00
2023-05-14T03:57:52.751Z,100.00
2023-05-14T04:00:19.610Z,100.00
2023-05-14T04:02:46.362Z,100.00
2023-05-14T04:05:12.984Z,100.00
2023-05-14T04:07:39.538Z,100.00
2023-05-14T04:10:06.885Z,100.00
2023-05-14T04:12:33.535Z,100.00
2023-05-14T04:15:00.079Z,100.00
2023-05-14T04:17:26.908Z,100.00
2023-05-14T04:19:53.637Z,100.00
2023-05-14T04:22:20.195Z,100.00
2023-05-14T04:24:46.818Z,100.00
2023-05-14T04:27:21.143Z,100.00
2023-05-14T04:29:48.836Z,100.00
2023-05-14T04:32:15.445Z,100.00
2023-05-14T04:34:42.036Z,100.00
2023-05-14T04:37:09.041Z,100.00
2023-05-14T04:39:35.779Z,100.00
2023-05-14T04:42:02.362Z,100.00
2023-05-14T04:44:28.973Z,100.00
2023-05-14T04:46:55.630Z,100.00
2023-05-14T04:49:22.374Z,100.00
2023-05-14T04:51:49.512Z,100.00
2023-05-14T04:54:16.137Z,100.00
2023-05-14T04:56:42.690Z,100.00
2023-05-14T04:59:09.405Z,100.00
2023-05-14T05:01:36.254Z,100.00
2023-05-14T05:04:02.978Z,100.00
2023-05-14T05:06:29.937Z,100.00
2023-05-14T05:08:56.552Z,100.00
2023-05-14T05:11:23.116Z,100.00
2023-05-14T05:13:50.334Z,100.00
2023-05-14T05:16:17.079Z,100.00
2023-05-14T05:18:44.732Z,100.00
2023-05-14T05:21:11.500Z,100.00
2023-05-14T05:23:38.131Z,100.00
2023-05-14T05:26:04.732Z,100.00
2023-05-14T05:28:31.326Z,100.00
2023-05-14T05:30:57.895Z,100.00
2023-05-14T05:33:24.571Z,100.00
2023-05-14T05:35:52.755Z,100.00
2023-05-14T05:38:19.361Z,100.00
2023-05-14T05:40:45.993Z,100.00
2023-05-14T05:43:14.043Z,100.00
2023-05-14T05:45:41.564Z,100.00
2023-05-14T05:48:08.220Z,100.00
2023-05-14T05:50:35.073Z,100.00
2023-05-14T05:53:01.930Z,100.00
2023-05-14T05:55:29.572Z,100.00
2023-05-14T05:57:56.585Z,100.00
2023-05-14T06:00:24.001Z,100.00
2023-05-14T06:02:50.834Z,100.00
2023-05-14T06:05:17.682Z,100.00
2023-05-14T06:07:44.397Z,100.00
2023-05-14T06:10:11.097Z,100.00
2023-05-14T06:12:37.748Z,100.00
2023-05-14T06:15:04.790Z,100.00
2023-05-14T06:17:31.410Z,100.00
2023-05-14T06:19:58.060Z,100.00
2023-05-14T06:22:24.669Z,100.00
2023-05-14T06:24:51.234Z,100.00
2023-05-14T06:27:17.807Z,100.00
2023-05-14T06:29:44.553Z,100.00
2023-05-14T06:32:14.267Z,99.76
2023-05-14T06:34:42.479Z,95.63
2023-05-14T06:37:10.027Z,100.00
2023-05-14T06:39:37.517Z,96.81
2023-05-14T06:42:04.594Z,92.05
2023-05-14T06:44:31.332Z,98.87
2023-05-14T06:46:57.929Z,98.92
2023-05-14T06:49:24.510Z,95.52
2023-05-14T06:51:51.107Z,89.39
2023-05-14T06:54:17.832Z,92.54
2023-05-14T06:56:44.502Z,95.74
2023-05-14T06:59:11.070Z,95.55
2023-05-14T07:01:37.690Z,90.23
2023-05-14T07:04:04.445Z,89.82
2023-05-14T07:06:31.077Z,93.21
2023-05-14T07:08:57.699Z,90.27
2023-05-14T07:11:24.295Z,81.30
2023-05-14T07:13:50.927Z,90.85
2023-05-14T07:16:17.547Z,89.73
2023-05-14T07:18:45.511Z,86.98
2023-05-14T07:21:12.501Z,80.40
2023-05-14T07:23:39.092Z,75.34
2023-05-14T07:26:06.236Z,74.68
2023-05-14T07:28:32.948Z,73.69
2023-05-14T07:30:59.765Z,81.76
2023-05-14T07:33:26.955Z,80.81
2023-05-14T07:35:54.220Z,72.87
2023-05-14T07:38:21.220Z,72.99
2023-05-14T07:40:47.824Z,75.50
2023-05-14T07:43:14.469Z,73.72
2023-05-14T07:45:41.230Z,70.17
2023-05-14T07:48:08.116Z,75.87
2023-05-14T07:50:34.792Z,77.85
2023-05-14T07:53:01.384Z,68.62
2023-05-14T07:55:28.050Z,69.64
2023-05-14T07:57:54.669Z,63.19
2023-05-14T08:00:21.678Z,66.78
2023-05-14T08:02:49.334Z,67.78
2023-05-14T08:05:16.663Z,65.66
2023-05-14T08:07:43.513Z,64.47
2023-05-14T08:10:10.666Z,63.19
2023-05-14T08:12:37.367Z,59.39
2023-05-14T08:15:04.412Z,60.27
2023-05-14T08:17:31.058Z,61.68
2023-05-14T08:19:57.721Z,66.32
2023-05-14T08:22:24.384Z,59.56
2023-05-14T08:24:51.035Z,66.11
2023-05-14T08:27:17.669Z,64.47
2023-05-14T08:29:44.272Z,61.67
2023-05-14T08:32:22.173Z,62.48
2023-05-14T08:34:50.806Z,61.75
2023-05-14T08:37:17.540Z,56.64
2023-05-14T08:39:44.376Z,55.81
2023-05-14T08:42:13.084Z,55.68
2023-05-14T08:44:51.990Z,59.06
2023-05-14T08:47:22.148Z,59.59
2023-05-14T08:49:55.073Z,58.68
2023-05-14T08:52:22.872Z,53.12
2023-05-14T08:54:51.311Z,49.14
2023-05-14T08:57:20.236Z,57.86
2023-05-14T08:59:47.406Z,54.54
2023-05-14T09:02:16.939Z,56.12
2023-05-14T09:04:43.861Z,61.34
2023-05-14T09:07:11.439Z,59.26
2023-05-14T09:09:38.652Z,57.03
2023-05-14T09:12:06.677Z,60.89
2023-05-14T09:14:33.436Z,63.80
2023-05-14T09:17:00.092Z,60.71
2023-05-14T09:19:27.063Z,51.19
2023-05-14T09:21:59.199Z,51.89
2023-05-14T09:24:29.080Z,53.10
2023-05-14T09:26:58.750Z,55.71
2023-05-14T09:29:26.461Z,49.72
2023-05-14T09:31:53.911Z,54.62
2023-05-14T09:34:24.624Z,54.70
2023-05-14T09:36:58.443Z,50.72
2023-05-14T09:39:25.948Z,56.27
2023-05-14T09:42:00.399Z,48.81
2023-05-14T09:44:28.270Z,42.19
2023-05-14T09:46:55.901Z,50.62
2023-05-14T09:49:23.115Z,45.00
2023-05-14T09:51:50.761Z,46.77
2023-05-14T09:54:17.621Z,46.53
2023-05-14T09:56:44.629Z,47.13
2023-05-14T09:59:11.363Z,44.85
2023-05-14T10:01:38.714Z,50.87
2023-05-14T10:04:08.228Z,44.15
2023-05-14T10:06:39.714Z,47.83
2023-05-14T10:09:12.449Z,46.32
2023-05-14T10:11:43.799Z,46.05
2023-05-14T10:14:53.705Z,50.73
2023-05-14T10:17:23.668Z,42.30
2023-05-14T10:19:54.513Z,46.27
2023-05-14T10:22:24.488Z,43.79
2023-05-14T10:24:52.816Z,42.31
2023-05-14T10:27:23.657Z,49.32
2023-05-14T10:29:56.835Z,47.42
2023-05-14T10:32:25.860Z,38.21
2023-05-14T10:34:53.848Z,43.59
2023-05-14T10:37:25.592Z,44.87
2023-05-14T10:40:00.182Z,40.13
2023-05-14T10:42:35.966Z,43.55
2023-05-14T10:45:07.441Z,47.14
2023-05-14T10:47:48.815Z,45.81
2023-05-14T10:50:16.223Z,49.09
2023-05-14T10:52:44.426Z,45.92
2023-05-14T10:55:14.597Z,44.58
2023-05-14T10:57:43.797Z,50.25
2023-05-14T11:00:12.539Z,47.78
2023-05-14T11:02:41.030Z,48.33
2023-05-14T11:05:13.832Z,43.00
2023-05-14T11:07:45.966Z,40.21
2023-05-14T11:10:21.481Z,39.29
2023-05-14T11:12:51.015Z,38.93
2023-05-14T11:15:22.741Z,48.01
2023-05-14T11:17:50.937Z,51.16
2023-05-14T11:20:18.303Z,41.76
2023-05-14T11:22:46.563Z,49.97
2023-05-14T11:25:14.880Z,44.98
2023-05-14T11:27:43.867Z,44.69
2023-05-14T11:30:18.648Z,43.62
2023-05-14T11:32:47.174Z,44.60
2023-05-14T11:35:15.187Z,49.60
2023-05-14T11:37:42.341Z,45.46
2023-05-14T11:40:14.587Z,49.98
2023-05-14T11:42:41.880Z,54.98
2023-05-14T11:45:12.353Z,54.82
2023-05-14T11:47:40.685Z,50.00
2023-05-14T11:50:21.586Z,47.31
2023-05-14T11:52:50.820Z,41.44
2023-05-14T11:55:17.866Z,45.45
2023-05-14T11:57:44.679Z,43.01
2023-05-14T12:00:21.557Z,42.94
2023-05-14T12:02:49.953Z,43.77
2023-05-14T12:05:16.978Z,42.71
2023-05-14T12:07:47.528Z,46.78
2023-05-14T12:10:14.183Z,46.82
2023-05-14T12:12:41.011Z,45.67
2023-05-14T12:15:14.851Z,53.11
2023-05-14T12:17:42.030Z,52.99
2023-05-14T12:20:11.063Z,49.52
2023-05-14T12:22:38.451Z,56.31
2023-05-14T12:25:11.229Z,47.51
2023-05-14T12:27:37.915Z,51.97
2023-05-14T12:30:20.755Z,46.05
2023-05-14T12:32:53.011Z,46.54
2023-05-14T12:35:21.564Z,48.29
2023-05-14T12:37:48.254Z,52.79
2023-05-14T12:40:14.902Z,58.38
2023-05-14T12:42:41.676Z,66.78
2023-05-14T12:45:08.739Z,61.79
2023-05-14T12:47:36.861Z,65.78
2023-05-14T12:50:04.751Z,69.01
2023-05-14T12:55:01.498Z,68.80
2023-05-14T12:57:29.755Z,65.37
2023-05-14T12:59:57.319Z,69.05
2023-05-14T13:02:24.003Z,71.89
2023-05-14T13:04:51.068Z,61.79
2023-05-14T13:07:17.655Z,65.58
2023-05-14T13:09:44.308Z,70.07
2023-05-14T13:12:11.007Z,68.67
2023-05-14T13:14:37.611Z,67.52
2023-05-14T13:17:05.195Z,68.71
2023-05-14T13:19:31.961Z,66.23
2023-05-14T13:21:58.520Z,64.42
2023-05-14T13:24:25.236Z,66.30
2023-05-14T13:26:52.004Z,71.96
2023-05-14T13:29:18.646Z,65.67
2023-05-14T13:31:45.325Z,68.06
2023-05-14T13:34:13.176Z,86.04
2023-05-14T13:36:41.249Z,65.29
2023-05-14T13:39:08.190Z,75.73
2023-05-14T13:41:35.807Z,69.95
2023-05-14T13:44:02.353Z,70.80
2023-05-14T13:46:29.296Z,65.96
2023-05-14T13:48:56.029Z,61.28
2023-05-14T13:51:23.316Z,57.50
2023-05-14T13:53:50.895Z,58.00
2023-05-14T13:56:17.606Z,64.62
2023-05-14T13:58:44.219Z,63.22
2023-05-14T14:01:10.862Z,60.26
2023-05-14T14:03:37.539Z,64.66
2023-05-14T14:06:04.279Z,64.91
2023-05-14T14:08:31.208Z,59.78
2023-05-14T14:10:58.299Z,62.77
2023-05-14T14:13:25.094Z,60.43
2023-05-14T14:15:51.770Z,58.36
2023-05-14T14:18:18.652Z,52.86
2023-05-14T14:20:45.381Z,59.77
2023-05-14T14:23:12.010Z,64.95
2023-05-14T14:25:38.689Z,60.06
2023-05-14T14:28:05.449Z,64.15
2023-05-14T14:30:32.881Z,57.62
2023-05-14T14:33:01.312Z,53.75
2023-05-14T14:35:28.037Z,55.83
2023-05-14T14:37:55.694Z,53.59
2023-05-14T14:40:24.066Z,57.00
2023-05-14T14:42:50.802Z,49.41
2023-05-14T14:45:17.914Z,49.03
2023-05-14T14:47:46.597Z,53.37
2023-05-14T14:50:13.731Z,53.60
2023-05-14T14:52:45.513Z,50.65
2023-05-14T14:55:12.791Z,45.68
2023-05-14T14:57:39.766Z,49.82
2023-05-14T15:00:07.321Z,49.25
2023-05-14T15:02:34.558Z,50.69
2023-05-14T15:05:01.454Z,50.72
2023-05-14T15:07:29.625Z,52.42
2023-05-14T15:09:56.355Z,55.38
2023-05-14T15:12:22.991Z,55.93
2023-05-14T15:14:49.585Z,54.69
2023-05-14T15:17:16.344Z,58.98
2023-05-14T15:19:43.037Z,58.33
2023-05-14T15:22:09.730Z,59.45
2023-05-14T15:24:36.464Z,61.07
2023-05-14T15:27:03.179Z,54.10
2023-05-14T15:29:29.905Z,55.86
2023-05-14T15:31:56.841Z,52.04
2023-05-14T15:34:23.551Z,57.24
2023-05-14T15:36:50.536Z,53.56
2023-05-14T15:39:17.258Z,54.24
2023-05-14T15:41:44.063Z,53.94
2023-05-14T15:44:10.712Z,49.34
2023-05-14T15:46:38.053Z,48.50
2023-05-14T15:49:04.761Z,46.90
2023-05-14T15:51:32.109Z,48.37
2023-05-14T15:53:59.026Z,49.73
2023-05-14T15:56:25.887Z,51.65
2023-05-14T15:58:52.565Z,47.16
2023-05-14T16:01:19.708Z,53.74
2023-05-14T16:03:46.485Z,52.31
2023-05-14T16:06:14.593Z,54.96
2023-05-14T16:08:41.192Z,54.13
2023-05-14T16:11:07.807Z,53.70
2023-05-14T16:13:35.768Z,53.97
2023-05-14T16:16:02.508Z,55.44
2023-05-14T16:18:29.626Z,57.18
2023-05-14T16:20:56.546Z,60.67
2023-05-14T16:23:23.145Z,63.47
2023-05-14T16:25:50.114Z,69.73
2023-05-14T16:28:16.950Z,70.97
2023-05-14T16:30:43.552Z,70.28
2023-05-14T16:33:10.526Z,72.79
2023-05-14T16:35:37.289Z,72.74
2023-05-14T16:38:04.158Z,73.36
2023-05-14T16:40:30.716Z,71.66
2023-05-14T16:42:57.348Z,72.96
2023-05-14T16:45:24.179Z,70.59
2023-05-14T16:47:51.753Z,72.21
2023-05-14T16:50:18.349Z,70.18
2023-05-14T16:52:44.961Z,71.14
2023-05-14T16:55:11.615Z,72.08
2023-05-14T16:57:38.279Z,74.26
2023-05-14T17:00:06.238Z,71.47
2023-05-14T17:02:33.728Z,69.61
2023-05-14T17:05:00.564Z,75.42
2023-05-14T17:07:27.512Z,76.99
2023-05-14T17:09:54.193Z,78.06
2023-05-14T17:12:20.827Z,81.23
2023-05-14T17:14:47.455Z,79.80
2023-05-14T17:17:14.016Z,81.46
2023-05-14T17:19:40.806Z,79.04
2023-05-14T17:22:07.382Z,77.92
2023-05-14T17:24:35.465Z,74.76
2023-05-14T17:27:02.151Z,75.07
2023-05-14T17:29:28.802Z,73.84
2023-05-14T17:32:03.570Z,71.66
2023-05-14T17:34:30.589Z,72.76
2023-05-14T17:36:57.388Z,73.57
2023-05-14T17:39:24.059Z,73.01
2023-05-14T17:41:50.657Z,72.62
2023-05-14T17:44:17.220Z,72.26
2023-05-14T17:46:44.920Z,73.98
2023-05-14T17:49:12.067Z,74.78
2023-05-14T17:51:38.634Z,75.80
2023-05-14T17:54:05.258Z,74.19
2023-05-14T17:56:32.092Z,75.49
2023-05-14T17:58:58.707Z,76.32
2023-05-14T18:01:25.405Z,77.29
2023-05-14T18:03:52.505Z,76.37
2023-05-14T18:06:19.205Z,78.16
2023-05-14T18:08:45.831Z,76.02
2023-05-14T18:11:12.460Z,76.94
2023-05-14T18:13:39.088Z,77.17
2023-05-14T18:16:05.743Z,76.48
2023-05-14T18:18:32.504Z,74.44
2023-05-14T18:20:59.580Z,73.85
2023-05-14T18:23:26.219Z,74.43
2023-05-14T18:25:52.864Z,75.07
2023-05-14T18:28:21.408Z,77.06
2023-05-14T18:30:51.094Z,76.68
2023-05-14T18:33:18.174Z,78.34
2023-05-14T18:35:44.858Z,77.00
2023-05-14T18:38:13.776Z,77.43
2023-05-14T18:40:40.561Z,77.27
2023-05-14T18:43:07.333Z,77.26
2023-05-14T18:45:34.010Z,78.23
2023-05-14T18:48:01.149Z,78.39
2023-05-14T18:50:27.828Z,79.62
2023-05-14T18:52:54.486Z,79.01
2023-05-14T18:55:21.184Z,77.90
2023-05-14T18:57:47.906Z,77.76
2023-05-14T19:00:15.074Z,80.40
2023-05-14T19:02:41.952Z,80.51
2023-05-14T19:05:09.015Z,80.85
2023-05-14T19:07:37.198Z,82.34
2023-05-14T19:10:04.762Z,81.47
2023-05-14T19:12:31.868Z,82.51
2023-05-14T19:14:58.482Z,81.75
2023-05-14T19:17:25.623Z,81.94
2023-05-14T19:19:52.296Z,83.04
2023-05-14T19:22:19.558Z,82.45
2023-05-14T19:24:46.291Z,81.99
2023-05-14T19:27:16.253Z,83.45
2023-05-14T19:29:43.786Z,81.74
2023-05-14T19:32:10.934Z,81.56
2023-05-14T19:34:37.534Z,83.03
2023-05-14T19:37:05.188Z,81.58
2023-05-14T19:39:31.892Z,81.39
2023-05-14T19:41:58.542Z,81.47
2023-05-14T19:44:25.177Z,82.21
2023-05-14T19:46:51.969Z,83.09
2023-05-14T19:49:18.628Z,83.59
2023-05-14T19:51:45.272Z,87.71
2023-05-14T19:54:11.872Z,86.24
2023-05-14T19:56:38.660Z,83.31
2023-05-14T19:59:05.286Z,84.35
2023-05-14T20:01:32.494Z,82.48
2023-05-14T20:03:59.278Z,83.94
2023-05-14T20:06:25.932Z,85.18
2023-05-14T20:08:52.601Z,85.31
2023-05-14T20:11:19.685Z,84.34
2023-05-14T20:13:46.328Z,84.26
2023-05-14T20:16:16.649Z,86.08
2023-05-14T20:18:44.089Z,86.45
2023-05-14T20:21:10.958Z,85.74
2023-05-14T20:23:37.671Z,88.96
2023-05-14T20:26:06.957Z,87.54
2023-05-14T20:28:38.148Z,87.53
2023-05-14T20:31:08.269Z,87.59
2023-05-14T20:33:38.071Z,87.93
2023-05-14T20:36:12.283Z,87.77
2023-05-14T20:38:41.580Z,85.90
2023-05-14T20:41:13.425Z,85.97
2023-05-14T20:43:43.462Z,85.65
2023-05-14T20:46:12.368Z,86.51
2023-05-14T20:48:47.052Z,87.81
2023-05-14T20:51:16.893Z,87.54
2023-05-14T20:53:43.918Z,88.40
2023-05-14T20:56:14.368Z,89.85
2023-05-14T20:58:41.293Z,88.78
2023-05-14T21:01:08.347Z,87.51
2023-05-14T21:03:36.074Z,88.21
2023-05-14T21:06:05.919Z,88.95
2023-05-14T21:08:40.645Z,88.36
2023-05-14T21:11:07.910Z,87.48
2023-05-14T21:13:34.951Z,84.78
2023-05-14T21:16:11.311Z,84.94
2023-05-14T21:18:41.358Z,85.55
2023-05-14T21:21:08.373Z,86.90
2023-05-14T21:23:37.166Z,88.71
2023-05-14T21:26:06.967Z,87.19
2023-05-14T21:28:39.651Z,88.17
2023-05-14T21:31:15.011Z,87.90
2023-05-14T21:33:42.583Z,88.49
2023-05-14T21:36:10.218Z,87.86
2023-05-14T21:38:37.464Z,87.29
2023-05-14T21:41:09.217Z,88.09
2023-05-14T21:43:42.628Z,89.18
2023-05-14T21:46:15.000Z,88.85
2023-05-14T21:48:50.560Z,91.47
2023-05-14T21:51:31.101Z,90.11
2023-05-14T21:54:04.404Z,89.87
2023-05-14T21:56:42.699Z,90.13
2023-05-14T21:59:13.839Z,89.44
2023-05-14T22:02:05.374Z,89.93
2023-05-14T22:04:33.234Z,90.33
2023-05-14T22:07:08.578Z,89.52
2023-05-14T22:09:41.368Z,88.82
2023-05-14T22:12:22.761Z,90.64
2023-05-14T22:14:49.372Z,90.42
2023-05-14T22:17:16.142Z,89.12
2023-05-14T22:19:42.726Z,91.68
2023-05-14T22:22:09.301Z,91.32
2023-05-14T22:24:35.914Z,90.69
2023-05-14T22:27:02.458Z,93.51
2023-05-14T22:29:28.983Z,94.94
2023-05-14T22:31:55.714Z,95.41
2023-05-14T22:34:22.499Z,95.24
2023-05-14T22:36:49.065Z,95.41
2023-05-14T22:39:15.689Z,96.82
2023-05-14T22:41:42.269Z,96.55
2023-05-14T22:44:08.814Z,97.91
2023-05-14T22:46:35.696Z,98.45
2023-05-14T22:49:02.263Z,96.59
2023-05-14T22:51:28.934Z,97.52
2023-05-14T22:53:55.688Z,100.00
2023-05-14T22:56:22.348Z,97.96
2023-05-14T22:58:48.989Z,96.27
2023-05-14T23:01:15.872Z,97.84
2023-05-14T23:03:42.454Z,99.55
2023-05-14T23:06:09.062Z,98.68
2023-05-14T23:08:35.874Z,99.72
2023-05-14T23:11:02.457Z,100.00
2023-05-14T23:13:29.059Z,100.00
2023-05-14T23:15:57.275Z,100.00
2023-05-14T23:18:26.239Z,98.92
2023-05-14T23:20:53.459Z,99.69
2023-05-14T23:23:20.227Z,100.00
2023-05-14T23:25:49.165Z,99.40
2023-05-14T23:28:16.625Z,100.00
2023-05-14T23:30:46.353Z,100.00
2023-05-14T23:33:12.977Z,100.00
2023-05-14T23:35:39.969Z,100.00
2023-05-14T23:38:07.402Z,100.00
2023-05-14T23:40:34.146Z,100.00
2023-05-14T23:43:01.184Z,99.96
2023-05-14T23:45:28.118Z,98.88
2023-05-14T23:47:57.185Z,100.00
2023-05-14T23:50:24.413Z,100.00
2023-05-14T23:52:52.261Z,99.86
2023-05-14T23:55:19.446Z,100.00
2023-05-14T23:57:46.183Z,100.00
